createdAt,value
2018-05-06T05:55:34.838Z,478.13
2018-05-06T05:56:35.239Z,511.88
2018-05-06T05:58:28.195Z,489.38
2018-05-06T05:59:27.714Z,483.75
2018-05-06T06:01:21.188Z,517.50
2018-05-06T06:02:20.635Z,556.88
2018-05-06T06:04:15.643Z,607.50
2018-05-06T06:05:15.175Z,573.75
2018-05-06T06:07:08.543Z,585.00
2018-05-06T06:08:08.114Z,585.00
2018-05-06T06:11:01.851Z,511.88
2018-05-06T06:12:54.513Z,534.38
2018-05-06T06:13:54.027Z,540.00
2018-05-06T06:15:47.471Z,534.38
2018-05-06T06:16:47.041Z,517.50
2018-05-06T06:18:40.506Z,748.13
2018-05-06T06:19:40.051Z,753.75
2018-05-06T06:21:33.413Z,607.50
2018-05-06T06:22:32.924Z,613.13
2018-05-06T06:24:26.430Z,545.63
2018-05-06T06:25:25.956Z,556.88
2018-05-06T06:27:20.824Z,551.25
2018-05-06T06:28:20.879Z,534.38
2018-05-06T06:30:13.924Z,540.00
2018-05-06T06:31:14.249Z,540.00
2018-05-06T06:33:06.735Z,545.63
2018-05-06T06:34:06.284Z,545.63
2018-05-06T06:36:00.234Z,545.63
2018-05-06T06:36:59.730Z,551.25
2018-05-06T06:38:52.682Z,556.88
2018-05-06T06:39:52.664Z,556.88
2018-05-06T06:41:48.265Z,585.00
2018-05-06T06:44:41.703Z,1935.00
2018-05-06T06:45:40.748Z,2998.13
2018-05-06T06:47:34.231Z,2486.25
2018-05-06T06:48:34.696Z,2896.88
2018-05-06T06:50:27.733Z,2565.00
2018-05-06T06:51:26.772Z,2891.25
2018-05-06T06:53:21.746Z,2626.88
2018-05-06T06:54:21.282Z,2885.63
2018-05-06T06:56:16.397Z,2998.13
2018-05-06T06:57:16.819Z,2840.63
2018-05-06T06:59:09.308Z,2891.25
2018-05-06T07:00:08.856Z,2975.63
2018-05-06T07:02:02.419Z,3279.38
2018-05-06T07:03:01.955Z,3290.63
2018-05-06T07:04:56.040Z,3150.00
2018-05-06T07:05:55.992Z,2970.00
2018-05-06T07:07:51.032Z,2975.63
2018-05-06T07:08:50.494Z,2975.63
2018-05-06T07:10:43.618Z,2998.13
2018-05-06T07:11:44.058Z,2947.50
2018-05-06T07:13:36.703Z,3386.25
2018-05-06T07:14:36.663Z,3650.63
2018-05-06T07:16:30.237Z,3161.25
2018-05-06T07:17:29.313Z,3133.13
2018-05-06T07:19:23.286Z,3105.00
2018-05-06T07:20:22.352Z,3003.75
2018-05-06T07:22:16.600Z,3780.00
2018-05-06T07:23:16.243Z,3656.25
2018-05-06T07:25:09.348Z,3318.75
2018-05-06T07:26:09.834Z,3273.75
2018-05-06T07:28:05.441Z,3217.50
2018-05-06T07:29:05.423Z,2981.25
2018-05-06T07:31:00.022Z,3960.00
2018-05-06T07:31:59.984Z,3751.88
2018-05-06T07:33:53.394Z,3622.50
2018-05-06T07:36:46.594Z,3583.13
2018-05-06T07:37:46.631Z,3487.50
2018-05-06T07:39:51.972Z,3037.50
2018-05-06T07:40:51.796Z,3228.75
2018-05-06T07:42:45.447Z,3020.63
2018-05-06T07:43:44.884Z,3442.50
2018-05-06T07:45:38.057Z,3335.63
2018-05-06T07:46:37.540Z,2970.00
2018-05-06T07:48:31.019Z,4185.00
2018-05-06T07:49:30.593Z,3645.00
2018-05-06T07:51:24.119Z,4393.13
2018-05-06T07:52:24.083Z,4072.50
2018-05-06T07:54:17.326Z,3285.00
2018-05-06T07:55:16.758Z,3684.38
2018-05-06T07:57:11.171Z,3639.38
2018-05-06T07:58:09.990Z,3948.75
2018-05-06T08:00:03.453Z,3881.25
2018-05-06T08:01:03.628Z,3600.00
2018-05-06T08:02:57.117Z,4123.13
2018-05-06T08:03:57.282Z,4365.00
2018-05-06T08:06:02.298Z,3234.38
2018-05-06T08:07:02.282Z,3566.25
2018-05-06T08:08:55.345Z,4185.00
2018-05-06T08:09:55.292Z,4258.13
2018-05-06T08:11:48.374Z,3999.38
2018-05-06T08:12:47.970Z,3870.00
2018-05-06T08:14:41.546Z,3926.25
2018-05-06T08:15:41.021Z,3982.50
2018-05-06T08:17:35.945Z,4927.50
2018-05-06T08:18:35.465Z,5203.13
2018-05-06T08:20:29.937Z,3988.13
2018-05-06T08:21:28.938Z,3870.00
2018-05-06T08:23:23.997Z,4533.75
2018-05-06T08:24:23.552Z,4719.38
2018-05-06T08:26:17.072Z,4095.00
2018-05-06T08:27:16.638Z,3903.75
2018-05-06T08:29:10.058Z,3875.63
2018-05-06T08:30:09.685Z,4072.50
2018-05-06T08:32:03.233Z,5208.75
2018-05-06T08:33:03.149Z,5197.50
2018-05-06T08:34:56.569Z,4843.13
2018-05-06T08:35:56.221Z,4927.50
2018-05-06T08:37:51.095Z,5158.13
2018-05-06T08:38:50.673Z,4556.25
2018-05-06T08:40:44.101Z,3645.00
2018-05-06T08:41:44.152Z,5495.63
2018-05-06T08:43:37.256Z,4443.75
2018-05-06T08:44:36.803Z,4944.38
2018-05-06T08:46:30.292Z,4381.88
2018-05-06T08:47:30.246Z,4016.25
2018-05-06T08:49:23.348Z,4623.75
2018-05-06T08:50:23.325Z,4809.38
2018-05-06T08:52:16.391Z,4674.38
2018-05-06T08:53:15.983Z,4511.25
2018-05-06T08:55:09.552Z,4353.75
2018-05-06T08:56:09.358Z,5478.75
2018-05-06T08:58:02.560Z,4533.75
2018-05-06T08:59:02.104Z,4235.63
2018-05-06T09:00:55.562Z,5917.50
2018-05-06T09:01:55.160Z,5000.63
2018-05-06T09:03:48.638Z,4145.63
2018-05-06T09:04:48.204Z,4921.88
2018-05-06T09:06:41.755Z,5445.00
2018-05-06T09:07:41.271Z,6795.00
2018-05-06T09:09:34.738Z,4173.75
2018-05-06T09:10:34.752Z,5107.50
2018-05-06T09:12:27.890Z,5703.75
2018-05-06T09:13:27.859Z,5765.63
2018-05-06T09:15:20.847Z,6052.50
2018-05-06T09:16:20.721Z,5130.00
2018-05-06T09:18:13.953Z,5028.75
2018-05-06T09:19:13.824Z,4595.63
2018-05-06T09:21:07.989Z,5135.63
2018-05-06T09:22:07.389Z,4882.50
2018-05-06T09:24:00.557Z,5439.38
2018-05-06T09:25:00.082Z,5535.00
2018-05-06T09:26:54.977Z,4860.00
2018-05-06T09:27:54.926Z,5231.25
2018-05-06T09:29:48.079Z,5782.50
2018-05-06T09:30:48.081Z,5473.13
2018-05-06T09:32:41.148Z,5130.00
2018-05-06T09:33:41.134Z,5664.38
2018-05-06T09:35:34.214Z,5377.50
2018-05-06T09:36:33.733Z,5242.50
2018-05-06T09:38:27.214Z,3301.88
2018-05-06T09:39:26.839Z,4370.63
2018-05-06T09:41:20.832Z,5439.38
2018-05-06T09:42:20.741Z,5208.75
2018-05-06T09:44:13.852Z,5107.50
2018-05-06T09:45:13.860Z,4590.00
2018-05-06T09:47:06.952Z,5377.50
2018-05-06T09:48:06.576Z,5208.75
2018-05-06T09:50:00.018Z,5563.13
2018-05-06T09:50:59.885Z,5371.88
2018-05-06T09:52:53.016Z,5557.50
2018-05-06T09:53:52.604Z,5608.13
2018-05-06T09:55:45.994Z,5968.13
2018-05-06T09:56:45.576Z,5760.00
2018-05-06T09:58:39.003Z,5355.00
2018-05-06T09:59:38.905Z,5968.13
2018-05-06T10:01:31.994Z,3453.75
2018-05-06T10:02:32.010Z,3296.25
2018-05-06T10:04:25.121Z,5304.38
2018-05-06T10:05:24.634Z,4336.88
2018-05-06T10:07:18.110Z,5068.13
2018-05-06T10:08:17.665Z,6840.00
2018-05-06T10:10:11.083Z,5591.25
2018-05-06T10:11:10.641Z,5062.50
2018-05-06T10:13:16.360Z,5011.88
2018-05-06T10:14:15.873Z,4882.50
2018-05-06T10:16:09.457Z,6018.75
2018-05-06T10:17:08.968Z,6046.88
2018-05-06T10:19:02.422Z,4539.38
2018-05-06T10:20:02.366Z,5186.25
2018-05-06T10:21:55.559Z,5439.38
2018-05-06T10:22:55.029Z,5169.38
2018-05-06T10:24:48.472Z,5158.13
2018-05-06T10:25:48.548Z,4955.63
2018-05-06T10:27:41.687Z,4218.75
2018-05-06T10:28:41.202Z,4449.38
2018-05-06T10:30:34.656Z,4893.75
2018-05-06T10:31:34.218Z,4876.88
2018-05-06T10:33:27.715Z,5158.13
2018-05-06T10:34:27.268Z,4623.75
2018-05-06T10:36:22.201Z,5647.50
2018-05-06T10:37:22.195Z,5315.63
2018-05-06T10:39:15.295Z,5608.13
2018-05-06T10:40:14.792Z,5546.25
2018-05-06T10:42:08.286Z,5866.88
2018-05-06T10:43:07.922Z,5073.75
2018-05-06T10:45:01.331Z,6125.63
2018-05-06T10:46:00.933Z,5394.38
2018-05-06T10:47:54.283Z,5658.75
2018-05-06T10:48:53.912Z,5546.25
2018-05-06T10:50:47.434Z,5191.88
2018-05-06T10:51:47.303Z,4758.75
2018-05-06T10:53:40.464Z,4696.88
2018-05-06T10:54:39.983Z,5236.88
2018-05-06T10:56:33.417Z,4567.50
2018-05-06T10:57:33.744Z,4691.25
2018-05-06T10:59:26.425Z,5394.38
2018-05-06T11:00:26.072Z,5220.00
2018-05-06T11:02:19.534Z,5889.38
2018-05-06T11:03:19.366Z,6024.38
2018-05-06T11:05:13.472Z,6626.25
2018-05-06T11:06:12.605Z,5962.50
2018-05-06T11:08:07.590Z,6052.50
2018-05-06T11:09:07.573Z,5726.25
2018-05-06T11:11:00.504Z,5658.75
2018-05-06T11:12:00.079Z,4730.63
2018-05-06T11:13:53.997Z,5765.63
2018-05-06T11:14:53.619Z,6204.38
2018-05-06T11:16:47.504Z,5726.25
2018-05-06T11:17:47.167Z,5439.38
2018-05-06T11:19:40.543Z,5023.13
2018-05-06T11:20:40.100Z,5248.13
2018-05-06T11:22:35.150Z,6221.25
2018-05-06T11:23:34.742Z,5529.38
2018-05-06T11:25:28.626Z,5523.75
2018-05-06T11:26:28.160Z,5512.50
2018-05-06T11:28:21.595Z,5855.63
2018-05-06T11:29:21.271Z,5889.38
2018-05-06T11:31:14.698Z,5563.13
2018-05-06T11:32:14.319Z,4944.38
2018-05-06T11:34:09.252Z,5371.88
2018-05-06T11:35:08.852Z,6440.63
2018-05-06T11:37:02.365Z,4545.00
2018-05-06T11:38:01.895Z,4905.00
2018-05-06T11:39:55.818Z,5580.00
2018-05-06T11:40:55.420Z,5000.63
2018-05-06T11:42:48.908Z,4522.50
2018-05-06T11:43:48.432Z,5540.63
2018-05-06T11:45:43.367Z,5675.63
2018-05-06T11:46:42.929Z,6271.88
2018-05-06T11:48:36.433Z,5580.00
2018-05-06T11:49:36.012Z,5996.25
2018-05-06T11:51:29.474Z,5276.25
2018-05-06T11:52:29.082Z,5141.25
2018-05-06T11:54:22.919Z,5523.75
2018-05-06T11:55:22.867Z,4730.63
2018-05-06T11:57:17.787Z,5186.25
2018-05-06T11:58:17.775Z,4888.13
2018-05-06T12:00:10.556Z,5107.50
2018-05-06T12:01:10.054Z,4646.25
2018-05-06T12:03:03.497Z,4938.75
2018-05-06T12:04:03.444Z,4865.63
2018-05-06T12:05:56.620Z,4674.38
2018-05-06T12:06:56.155Z,4865.63
2018-05-06T12:08:50.033Z,5281.88
2018-05-06T12:09:49.654Z,5619.38
2018-05-06T12:11:43.149Z,5574.38
2018-05-06T12:12:43.061Z,5411.25
2018-05-06T12:14:36.681Z,6018.75
2018-05-06T12:15:36.273Z,5726.25
2018-05-06T12:17:29.891Z,6232.50
2018-05-06T12:18:29.372Z,6513.75
2018-05-06T12:20:22.799Z,6080.63
2018-05-06T12:21:22.730Z,5776.88
2018-05-06T12:23:15.873Z,6541.88
2018-05-06T12:24:15.472Z,5743.13
2018-05-06T12:26:08.910Z,5855.63
2018-05-06T12:27:08.895Z,5085.00
2018-05-06T12:29:02.545Z,6103.13
2018-05-06T12:30:02.034Z,6249.38
2018-05-06T12:31:56.980Z,5490.00
2018-05-06T12:32:56.563Z,5535.00
2018-05-06T12:34:50.084Z,5141.25
2018-05-06T12:35:49.931Z,5068.13
2018-05-06T12:37:43.092Z,5349.38
2018-05-06T12:38:43.061Z,5017.50
2018-05-06T12:40:36.184Z,6480.00
2018-05-06T12:41:35.712Z,5782.50
2018-05-06T12:43:29.225Z,5793.75
2018-05-06T12:44:29.155Z,5754.38
2018-05-06T12:46:22.282Z,5799.38
2018-05-06T12:47:21.866Z,5315.63
2018-05-06T12:49:15.291Z,5878.13
2018-05-06T12:50:15.313Z,5276.25
2018-05-06T12:52:08.919Z,5540.63
2018-05-06T12:53:07.933Z,5917.50
2018-05-06T12:55:01.403Z,5433.75
2018-05-06T12:56:01.038Z,4910.63
2018-05-06T12:58:54.077Z,5113.13
2018-05-06T13:00:47.517Z,5523.75
2018-05-06T13:01:47.489Z,5265.00
2018-05-06T13:03:40.672Z,5000.63
2018-05-06T13:04:40.183Z,5326.88
2018-05-06T13:06:34.136Z,4848.75
2018-05-06T13:07:33.746Z,4820.63
2018-05-06T13:09:28.796Z,4561.88
2018-05-06T13:10:28.334Z,4972.50
2018-05-06T13:12:22.360Z,4370.63
2018-05-06T13:13:21.932Z,4140.00
2018-05-06T13:15:16.931Z,4623.75
2018-05-06T13:16:16.489Z,4685.63
2018-05-06T13:18:10.433Z,5253.75
2018-05-06T13:19:10.453Z,4938.75
2018-05-06T13:21:05.125Z,4449.38
2018-05-06T13:22:04.696Z,4083.75
2018-05-06T13:24:12.931Z,4933.13
2018-05-06T13:25:12.464Z,5113.13
2018-05-06T13:27:07.583Z,4781.25
2018-05-06T13:28:07.074Z,4646.25
2018-05-06T13:30:01.048Z,4736.25
2018-05-06T13:31:00.671Z,4989.38
2018-05-06T13:32:55.671Z,4815.00
2018-05-06T13:33:55.203Z,4674.38
2018-05-06T13:35:49.242Z,4072.50
2018-05-06T13:36:49.083Z,4151.25
2018-05-06T13:38:43.819Z,4578.75
2018-05-06T13:39:43.376Z,4140.00
2018-05-06T13:41:37.421Z,5000.63
2018-05-06T13:42:37.293Z,4646.25
2018-05-06T13:44:30.458Z,3937.50
2018-05-06T13:45:29.996Z,3819.38
2018-05-06T13:47:25.022Z,3960.00
2018-05-06T13:48:24.955Z,4263.75
2018-05-06T13:50:18.727Z,4466.25
2018-05-06T13:51:18.460Z,4258.13
2018-05-06T13:53:11.633Z,4246.88
2018-05-06T13:54:11.254Z,4477.50
2018-05-06T13:56:04.704Z,4066.88
2018-05-06T13:57:04.291Z,4280.63
2018-05-06T13:58:57.780Z,5073.75
2018-05-06T13:59:57.349Z,4719.38
2018-05-06T14:01:50.879Z,4044.38
2018-05-06T14:02:50.406Z,3740.63
2018-05-06T14:04:44.389Z,4156.88
2018-05-06T14:05:43.426Z,4275.00
2018-05-06T14:07:37.471Z,4573.13
2018-05-06T14:08:36.953Z,4770.00
2018-05-06T14:10:30.011Z,4280.63
2018-05-06T14:11:29.891Z,3695.63
2018-05-06T14:13:23.603Z,3791.25
2018-05-06T14:14:23.150Z,3791.25
2018-05-06T14:16:16.620Z,4005.00
2018-05-06T14:17:16.273Z,4106.25
2018-05-06T14:19:11.212Z,4252.50
2018-05-06T14:20:10.773Z,4173.75
2018-05-06T14:22:04.318Z,3993.75
2018-05-06T14:23:03.830Z,3431.25
2018-05-06T14:24:57.313Z,4235.63
2018-05-06T14:25:56.949Z,4207.50
2018-05-06T14:27:50.444Z,3841.88
2018-05-06T14:28:49.979Z,3493.13
2018-05-06T14:30:43.467Z,3881.25
2018-05-06T14:31:43.042Z,3976.88
2018-05-06T14:33:36.466Z,4005.00
2018-05-06T14:34:36.032Z,4297.50
2018-05-06T14:36:29.455Z,3825.00
2018-05-06T14:37:29.076Z,3841.88
2018-05-06T14:39:22.390Z,3521.25
2018-05-06T14:40:21.958Z,3600.00
2018-05-06T14:42:15.476Z,3346.88
2018-05-06T14:43:14.969Z,3498.75
2018-05-06T14:45:08.412Z,3431.25
2018-05-06T14:46:07.997Z,3391.88
2018-05-06T14:48:02.028Z,3515.63
2018-05-06T14:49:01.116Z,3307.50
2018-05-06T14:50:54.491Z,3926.25
2018-05-06T14:51:54.095Z,3740.63
2018-05-06T14:53:49.021Z,3476.25
2018-05-06T14:54:48.625Z,3369.38
2018-05-06T14:56:42.085Z,3847.50
2018-05-06T14:57:42.040Z,3577.50
2018-05-06T14:59:35.161Z,3071.25
2018-05-06T15:00:34.677Z,3465.00
2018-05-06T15:02:28.172Z,3189.38
2018-05-06T15:03:28.197Z,3335.63
2018-05-06T15:05:21.281Z,3285.00
2018-05-06T15:06:21.205Z,3645.00
2018-05-06T15:08:14.235Z,3498.75
2018-05-06T15:09:13.851Z,3003.75
2018-05-06T15:11:07.408Z,3200.63
2018-05-06T15:12:07.317Z,3093.75
2018-05-06T15:14:00.442Z,3285.00
2018-05-06T15:14:59.992Z,3054.38
2018-05-06T15:16:53.443Z,1918.13
2018-05-06T15:17:53.046Z,2103.75
2018-05-06T15:19:46.498Z,3223.13
2018-05-06T15:20:46.063Z,3307.50
2018-05-06T15:22:39.591Z,2857.50
2018-05-06T15:23:39.180Z,3076.88
2018-05-06T15:25:32.616Z,3060.00
2018-05-06T15:26:32.199Z,2705.63
2018-05-06T15:28:27.195Z,2868.75
2018-05-06T15:29:26.714Z,3256.88
2018-05-06T15:31:20.203Z,2998.13
2018-05-06T15:32:19.760Z,2694.38
2018-05-06T15:34:13.807Z,2919.38
2018-05-06T15:35:13.208Z,2778.75
2018-05-06T15:37:06.352Z,2964.38
2018-05-06T15:38:05.865Z,2683.13
2018-05-06T15:39:59.390Z,2570.63
2018-05-06T15:40:59.415Z,2677.50
2018-05-06T15:42:52.915Z,2345.63
2018-05-06T15:43:52.881Z,2823.75
2018-05-06T15:45:46.577Z,2795.63
2018-05-06T15:46:46.034Z,2778.75
2018-05-06T15:48:39.551Z,2216.25
2018-05-06T15:49:39.586Z,2002.50
2018-05-06T15:51:32.606Z,2531.25
2018-05-06T15:52:32.192Z,2722.50
2018-05-06T15:54:25.628Z,2176.88
2018-05-06T15:55:25.544Z,2480.63
2018-05-06T15:57:18.769Z,2593.13
2018-05-06T15:58:18.287Z,2283.75
2018-05-06T16:00:12.340Z,1586.25
2018-05-06T16:01:12.259Z,1406.25
2018-05-06T16:03:06.785Z,1141.88
2018-05-06T16:04:06.347Z,635.63
2018-05-06T16:05:59.811Z,568.13
2018-05-06T16:06:59.756Z,568.13
2018-05-06T16:08:53.473Z,568.13
2018-05-06T16:09:52.929Z,596.25
2018-05-06T16:11:46.934Z,635.63
2018-05-06T16:12:46.525Z,618.75
2018-05-06T16:14:40.640Z,866.25
2018-05-06T16:15:39.618Z,911.25
2018-05-06T16:17:33.672Z,618.75
2018-05-06T16:18:32.668Z,736.88
2018-05-06T16:20:26.192Z,922.50
2018-05-06T16:21:25.703Z,753.75
2018-05-06T16:23:19.597Z,646.88
2018-05-06T16:24:19.159Z,883.13
2018-05-06T16:26:12.237Z,1220.63
2018-05-06T16:27:11.842Z,1108.13
2018-05-06T16:29:05.347Z,1271.25
2018-05-06T16:30:04.906Z,1215.00
2018-05-06T16:31:59.411Z,652.50
2018-05-06T16:32:58.858Z,534.38
2018-05-06T16:34:53.428Z,523.13
2018-05-06T16:35:53.057Z,601.88
2018-05-06T16:37:46.486Z,607.50
2018-05-06T16:38:46.017Z,573.75
2018-05-06T16:40:40.572Z,776.25
2018-05-06T16:41:39.569Z,523.13
2018-05-06T16:43:33.133Z,489.38
2018-05-06T16:44:32.684Z,472.50
2018-05-06T16:46:27.647Z,466.88
2018-05-06T16:47:27.230Z,461.25
2018-05-06T16:49:20.792Z,455.63
2018-05-06T16:50:20.340Z,455.63
2018-05-06T16:52:14.330Z,450.00
2018-05-06T16:53:13.338Z,444.38
2018-05-06T16:55:06.866Z,438.75
2018-05-06T16:56:06.774Z,438.75
2018-05-06T16:58:00.059Z,427.50
2018-05-06T16:58:59.428Z,427.50
2018-05-06T17:00:53.020Z,421.88
2018-05-06T17:01:53.500Z,416.25
2018-05-06T17:03:47.574Z,410.63
2018-05-06T17:04:46.076Z,410.63
2018-05-06T17:06:40.116Z,405.00
2018-05-06T17:07:39.450Z,399.38
2018-05-06T17:09:34.088Z,393.75
2018-05-06T17:10:33.714Z,393.75
2018-05-06T17:12:27.151Z,388.13
2018-05-06T17:13:26.642Z,382.50
2018-05-06T17:15:20.031Z,376.88
2018-05-06T17:16:19.992Z,371.25
2018-05-06T17:18:13.076Z,365.63
2018-05-06T17:19:13.034Z,365.63
2018-05-06T17:21:06.121Z,354.38
2018-05-06T17:22:05.995Z,348.75
2018-05-06T17:23:59.025Z,343.13
2018-05-06T17:24:58.888Z,343.13
2018-05-06T17:26:52.365Z,331.88
2018-05-06T17:27:51.964Z,331.88
2018-05-06T17:29:45.441Z,320.63
2018-05-06T17:30:44.923Z,320.63
2018-05-06T17:32:38.314Z,320.63
2018-05-06T17:33:38.241Z,309.38
2018-05-06T17:35:31.310Z,303.75
2018-05-06T17:36:30.772Z,298.13
2018-05-06T17:38:24.344Z,292.50
2018-05-06T17:39:24.258Z,286.88
2018-05-06T17:41:17.282Z,286.88
2018-05-06T17:42:16.808Z,281.25
2018-05-06T17:44:10.204Z,275.63
2018-05-06T17:45:09.755Z,270.00
2018-05-06T17:47:03.271Z,264.38
2018-05-06T17:48:02.723Z,258.75
2018-05-06T17:49:56.224Z,253.13
2018-05-06T17:50:55.772Z,247.50
2018-05-06T17:52:49.297Z,236.25
2018-05-06T17:53:48.695Z,230.63
2018-05-06T17:55:43.751Z,225.00
2018-05-06T17:56:43.260Z,219.38
2018-05-06T17:58:36.695Z,213.75
2018-05-06T17:59:36.204Z,208.13
2018-05-06T18:01:30.263Z,196.88
2018-05-06T18:02:29.261Z,191.25
2018-05-06T18:04:23.263Z,185.63
2018-05-06T18:05:23.113Z,180.00
2018-05-06T18:07:16.160Z,174.38
2018-05-06T18:08:15.673Z,168.75
2018-05-06T18:10:09.603Z,157.50
2018-05-06T18:11:08.618Z,151.88
2018-05-06T18:13:02.057Z,146.25
2018-05-06T18:14:01.552Z,140.63
2018-05-06T18:15:55.048Z,135.00
2018-05-06T18:16:54.589Z,129.38
2018-05-06T18:18:47.904Z,118.13
2018-05-06T18:19:47.570Z,112.50
2018-05-06T18:21:41.031Z,106.88
2018-05-06T18:22:41.305Z,101.25
2018-05-06T18:24:34.599Z,95.63
2018-05-06T18:25:33.991Z,90.00
2018-05-06T18:27:27.495Z,78.75
2018-05-06T18:28:27.637Z,78.75
2018-05-06T18:30:20.989Z,67.50
2018-05-06T18:31:20.912Z,67.50
2018-05-06T18:33:14.109Z,56.25
2018-05-06T18:34:13.582Z,56.25
2018-05-06T18:36:07.082Z,50.63
2018-05-06T18:37:06.676Z,45.00
2018-05-06T18:39:02.119Z,39.38
2018-05-06T18:40:01.217Z,33.75
2018-05-06T18:41:54.648Z,33.75
2018-05-06T18:42:54.184Z,28.13
2018-05-06T18:44:47.790Z,22.50
2018-05-06T18:45:47.690Z,22.50
2018-05-06T18:47:40.711Z,16.88
2018-05-06T18:48:40.306Z,16.88
2018-05-06T18:50:33.802Z,11.25
2018-05-06T18:51:33.444Z,11.25
2018-05-06T18:53:26.785Z,11.25
2018-05-06T18:54:26.403Z,5.63
2018-05-06T18:57:19.584Z,5.63
2018-05-06T18:59:13.029Z,5.63
2018-05-06T19:00:12.937Z,0.00
2018-05-06T19:02:07.487Z,0.00
2018-05-06T19:03:06.988Z,0.00
2018-05-06T19:05:00.498Z,0.00
2018-05-06T19:06:00.043Z,0.00
2018-05-06T19:07:53.619Z,0.00
2018-05-06T19:08:53.536Z,0.00
2018-05-06T19:10:46.641Z,0.00
2018-05-06T19:11:46.640Z,0.00
2018-05-06T19:13:39.665Z,0.00
2018-05-06T19:14:39.582Z,0.00
2018-05-06T19:16:32.641Z,0.00
2018-05-06T19:17:32.578Z,0.00
2018-05-06T19:19:25.769Z,0.00
2018-05-06T19:20:25.700Z,0.00
2018-05-06T19:22:18.781Z,0.00
2018-05-06T19:23:18.714Z,0.00
2018-05-06T19:25:11.807Z,0.00
2018-05-06T19:26:11.435Z,0.00
2018-05-06T19:28:04.916Z,0.00
2018-05-06T19:29:04.393Z,0.00
2018-05-06T19:30:58.041Z,0.00
2018-05-06T19:31:57.472Z,0.00
2018-05-06T19:33:50.992Z,0.00
2018-05-06T19:34:50.927Z,0.00
2018-05-06T19:36:43.967Z,0.00
2018-05-06T19:37:43.579Z,0.00
2018-05-06T19:39:38.482Z,0.00
2018-05-06T19:40:37.986Z,0.00
2018-05-06T19:42:31.520Z,0.00
2018-05-06T19:43:30.927Z,0.00
2018-05-06T19:45:24.309Z,0.00
2018-05-06T19:46:23.895Z,0.00
2018-05-06T19:48:17.334Z,0.00
2018-05-06T19:49:16.796Z,0.00
2018-05-06T19:51:10.372Z,0.00
2018-05-06T19:52:10.355Z,0.00
2018-05-06T19:54:03.328Z,0.00
2018-05-06T19:55:02.849Z,0.00
2018-05-06T19:56:56.212Z,0.00
2018-05-06T19:57:55.781Z,0.00
2018-05-06T19:59:49.269Z,0.00
2018-05-06T20:00:49.136Z,0.00
2018-05-06T20:02:42.129Z,0.00
2018-05-06T20:03:41.724Z,0.00
2018-05-06T20:05:35.105Z,0.00
2018-05-06T20:06:35.092Z,0.00
2018-05-06T20:08:29.629Z,0.00
2018-05-06T20:09:29.161Z,0.00
2018-05-06T20:11:22.615Z,0.00
2018-05-06T20:12:22.518Z,0.00
2018-05-06T20:14:15.478Z,0.00
2018-05-06T20:15:15.103Z,0.00
2018-05-06T20:17:08.476Z,0.00
2018-05-06T20:18:08.050Z,0.00
2018-05-06T20:20:01.468Z,0.00
2018-05-06T20:21:00.924Z,0.00
2018-05-06T20:22:54.416Z,0.00
2018-05-06T20:23:53.921Z,0.00
2018-05-06T20:25:48.949Z,0.00
2018-05-06T20:26:49.084Z,0.00
2018-05-06T20:28:41.853Z,0.00
2018-05-06T20:29:41.375Z,0.00
2018-05-06T20:31:35.200Z,0.00
2018-05-06T20:32:34.291Z,0.00
2018-05-06T20:34:27.824Z,0.00
2018-05-06T20:35:27.236Z,0.00
2018-05-06T20:37:20.734Z,0.00
2018-05-06T20:38:20.721Z,0.00
2018-05-06T20:40:25.839Z,0.00
2018-05-06T20:41:25.332Z,0.00
2018-05-06T20:43:18.772Z,0.00
2018-05-06T20:44:18.284Z,0.00
2018-05-06T20:46:11.766Z,0.00
2018-05-06T20:47:11.645Z,0.00
2018-05-06T20:49:06.261Z,0.00
2018-05-06T20:50:06.694Z,0.00
2018-05-06T20:51:59.192Z,0.00
2018-05-06T20:52:59.182Z,0.00
2018-05-06T20:54:52.103Z,0.00
2018-05-06T20:55:51.706Z,0.00
2018-05-06T20:57:45.126Z,0.00
2018-05-06T20:58:44.632Z,0.00
2018-05-06T21:00:38.015Z,0.00
2018-05-06T21:01:38.005Z,0.00
2018-05-06T21:03:43.236Z,0.00
2018-05-06T21:04:42.717Z,0.00
2018-05-06T21:06:36.169Z,0.00
2018-05-06T21:07:35.643Z,0.00
2018-05-06T21:09:29.145Z,0.00
2018-05-06T21:10:28.694Z,0.00
2018-05-06T21:12:23.632Z,0.00
2018-05-06T21:13:23.102Z,0.00
2018-05-06T21:15:16.583Z,0.00
2018-05-06T21:16:16.507Z,0.00
2018-05-06T21:18:09.531Z,0.00
2018-05-06T21:19:09.548Z,0.00
2018-05-06T21:21:02.447Z,0.00
2018-05-06T21:22:02.001Z,0.00
2018-05-06T21:23:55.408Z,0.00
2018-05-06T21:24:54.956Z,0.00
2018-05-06T21:26:48.395Z,0.00
2018-05-06T21:27:47.985Z,0.00
2018-05-06T21:29:42.912Z,0.00
2018-05-06T21:30:42.405Z,0.00
2018-05-06T21:32:35.861Z,0.00
2018-05-06T21:33:35.319Z,0.00
2018-05-06T21:35:28.887Z,0.00
2018-05-06T21:36:28.821Z,0.00
2018-05-06T21:38:21.831Z,0.00
2018-05-06T21:39:21.801Z,0.00
2018-05-06T21:41:14.789Z,0.00
2018-05-06T21:42:14.309Z,0.00
2018-05-06T21:44:07.803Z,0.00
2018-05-06T21:45:07.670Z,0.00
2018-05-06T21:47:00.667Z,0.00
2018-05-06T21:48:00.669Z,0.00
2018-05-06T21:49:53.643Z,0.00
2018-05-06T21:50:53.198Z,0.00
2018-05-06T21:52:48.157Z,0.00
2018-05-06T21:53:47.673Z,0.00
2018-05-06T21:55:41.135Z,0.00
2018-05-06T21:56:41.038Z,0.00
2018-05-06T21:58:34.533Z,0.00
2018-05-06T21:59:33.540Z,0.00
2018-05-06T22:01:27.056Z,0.00
2018-05-06T22:02:26.555Z,0.00
2018-05-06T22:04:19.942Z,0.00
2018-05-06T22:05:19.530Z,0.00
2018-05-06T22:07:12.939Z,0.00
2018-05-06T22:08:12.458Z,0.00
2018-05-06T22:10:07.357Z,0.00
2018-05-06T22:11:06.946Z,0.00
2018-05-06T22:13:00.380Z,0.00
2018-05-06T22:13:59.923Z,0.00
2018-05-06T22:15:53.307Z,0.00
2018-05-06T22:16:52.782Z,0.00
2018-05-06T22:18:46.311Z,0.00
2018-05-06T22:19:45.778Z,0.00
2018-05-06T22:21:39.517Z,0.00
2018-05-06T22:22:39.705Z,0.00
2018-05-06T22:24:32.660Z,0.00
2018-05-06T22:25:32.493Z,0.00
2018-05-06T22:27:27.186Z,0.00
2018-05-06T22:28:27.080Z,0.00
2018-05-06T22:30:20.124Z,0.00
2018-05-06T22:31:19.150Z,0.00
2018-05-06T22:33:12.596Z,0.00
2018-05-06T22:34:12.159Z,0.00
2018-05-06T22:36:05.565Z,0.00
2018-05-06T22:37:05.486Z,0.00
2018-05-06T22:38:59.023Z,0.00
2018-05-06T22:39:58.019Z,0.00
2018-05-06T22:41:51.478Z,0.00
2018-05-06T22:42:51.042Z,0.00
2018-05-06T22:44:45.876Z,0.00
2018-05-06T22:45:45.459Z,0.00
2018-05-06T22:47:56.206Z,0.00
2018-05-06T22:48:57.050Z,0.00
2018-05-06T22:50:49.172Z,0.00
2018-05-06T22:51:49.515Z,0.00
2018-05-06T22:53:44.033Z,0.00
2018-05-06T22:54:44.403Z,0.00
2018-05-06T22:56:36.993Z,0.00
2018-05-06T22:57:36.956Z,0.00
2018-05-06T22:59:30.091Z,0.00
2018-05-06T23:00:29.481Z,0.00
2018-05-06T23:02:22.914Z,0.00
2018-05-06T23:03:22.489Z,0.00
2018-05-06T23:05:15.830Z,0.00
2018-05-06T23:06:15.418Z,0.00
2018-05-06T23:08:09.330Z,0.00
2018-05-06T23:09:08.347Z,0.00
2018-05-06T23:11:02.317Z,0.00
2018-05-06T23:12:01.317Z,0.00
2018-05-06T23:13:56.824Z,0.00
2018-05-06T23:14:55.885Z,0.00
2018-05-06T23:16:49.517Z,0.00
2018-05-06T23:17:48.789Z,0.00
2018-05-06T23:19:42.228Z,0.00
2018-05-06T23:20:41.756Z,0.00
2018-05-06T23:22:35.188Z,0.00
2018-05-06T23:23:34.727Z,0.00
2018-05-06T23:25:28.124Z,0.00
2018-05-06T23:26:27.755Z,0.00
2018-05-06T23:28:21.077Z,0.00
2018-05-06T23:29:20.716Z,0.00
2018-05-06T23:31:14.108Z,0.00
2018-05-06T23:32:14.007Z,0.00
2018-05-06T23:34:08.551Z,0.00
2018-05-06T23:35:08.991Z,0.00
2018-05-06T23:37:01.486Z,0.00
2018-05-06T23:38:01.074Z,0.00
2018-05-06T23:39:54.444Z,0.00
2018-05-06T23:40:54.397Z,0.00
2018-05-06T23:42:47.472Z,0.00
2018-05-06T23:43:47.959Z,0.00
2018-05-06T23:45:40.366Z,0.00
2018-05-06T23:46:39.951Z,0.00
2018-05-06T23:48:33.821Z,0.00
2018-05-06T23:49:32.898Z,0.00
2018-05-06T23:51:28.337Z,0.00
2018-05-06T23:52:27.329Z,0.00
2018-05-06T23:54:20.775Z,0.00
2018-05-06T23:55:20.337Z,0.00
2018-05-06T23:57:14.256Z,0.00
2018-05-06T23:58:13.717Z,0.00
